createdAt,value
2023-03-17T00:00:51.739Z,90.63
2023-03-17T00:03:30.522Z,90.74
2023-03-17T00:06:02.339Z,89.20
2023-03-17T00:08:34.027Z,91.12
2023-03-17T00:11:02.757Z,91.63
2023-03-17T00:13:34.724Z,92.08
2023-03-17T00:16:06.026Z,92.04
2023-03-17T00:18:36.433Z,90.30
2023-03-17T00:21:08.893Z,91.43
2023-03-17T00:23:37.359Z,89.34
2023-03-17T00:26:05.922Z,87.32
2023-03-17T00:28:34.643Z,89.44
2023-03-17T00:31:07.896Z,89.96
2023-03-17T00:33:39.132Z,90.15
2023-03-17T00:36:08.505Z,90.76
2023-03-17T00:38:37.140Z,90.87
2023-03-17T00:41:08.087Z,89.94
2023-03-17T00:43:37.789Z,89.68
2023-03-17T00:46:17.465Z,89.14
2023-03-17T00:48:47.616Z,89.21
2023-03-17T00:51:20.002Z,88.85
2023-03-17T00:53:48.868Z,88.68
2023-03-17T00:56:20.592Z,88.09
2023-03-17T00:58:50.141Z,87.30
2023-03-17T01:01:19.427Z,86.12
2023-03-17T01:03:47.824Z,86.36
2023-03-17T01:06:21.229Z,85.87
2023-03-17T01:08:53.227Z,85.21
2023-03-17T01:11:23.649Z,85.32
2023-03-17T01:13:52.992Z,85.09
2023-03-17T01:16:22.605Z,85.30
2023-03-17T01:18:51.144Z,85.61
2023-03-17T01:21:19.437Z,83.22
2023-03-17T01:23:48.309Z,83.33
2023-03-17T01:26:17.291Z,82.79
2023-03-17T01:28:49.652Z,82.53
2023-03-17T01:31:18.279Z,81.35
2023-03-17T01:33:47.052Z,80.69
2023-03-17T01:36:16.608Z,80.36
2023-03-17T01:38:44.891Z,80.33
2023-03-17T01:41:13.622Z,80.87
2023-03-17T01:43:42.558Z,80.56
2023-03-17T01:46:31.558Z,78.78
2023-03-17T01:49:07.690Z,78.71
2023-03-17T01:51:42.331Z,78.41
2023-03-17T01:54:20.420Z,79.00
2023-03-17T01:56:56.381Z,78.67
2023-03-17T01:59:33.943Z,78.75
2023-03-17T02:02:07.796Z,78.20
2023-03-17T02:04:38.290Z,77.42
2023-03-17T02:07:09.921Z,78.26
2023-03-17T02:09:38.908Z,77.30
2023-03-17T02:12:11.246Z,77.14
2023-03-17T02:14:40.181Z,76.96
2023-03-17T02:17:10.643Z,76.74
2023-03-17T02:19:41.063Z,75.64
2023-03-17T02:22:10.187Z,75.35
2023-03-17T02:24:57.824Z,75.17
2023-03-17T02:27:32.996Z,76.38
2023-03-17T02:30:01.340Z,76.87
2023-03-17T02:32:30.054Z,76.29
2023-03-17T02:34:58.498Z,75.58
2023-03-17T02:37:26.966Z,75.24
2023-03-17T02:39:55.434Z,75.42
2023-03-17T02:42:24.055Z,75.10
2023-03-17T02:44:56.970Z,75.42
2023-03-17T02:47:26.611Z,74.85
2023-03-17T02:52:47.622Z,73.41
2023-03-17T02:55:32.890Z,74.34
2023-03-17T03:00:49.943Z,73.60
2023-03-17T03:03:18.958Z,73.60
2023-03-17T03:05:50.162Z,72.99
2023-03-17T03:08:24.815Z,74.42
2023-03-17T03:13:41.595Z,72.62
2023-03-17T03:16:20.345Z,73.24
2023-03-17T03:18:51.429Z,73.67
2023-03-17T03:24:14.148Z,72.82
2023-03-17T03:26:55.363Z,72.41
2023-03-17T03:32:09.892Z,70.77
2023-03-17T03:34:41.446Z,72.18
2023-03-17T03:37:17.105Z,70.96
2023-03-17T03:42:34.379Z,71.37
2023-03-17T03:47:47.644Z,70.80
2023-03-17T03:50:16.103Z,70.88
2023-03-17T03:52:45.422Z,70.42
2023-03-17T03:55:15.838Z,70.99
2023-03-17T03:57:45.626Z,70.45
2023-03-17T04:00:15.962Z,71.35
2023-03-17T04:02:47.617Z,69.55
2023-03-17T04:05:22.060Z,70.29
2023-03-17T04:08:00.896Z,69.66
2023-03-17T04:10:31.043Z,69.45
2023-03-17T04:15:41.995Z,68.52
2023-03-17T04:18:12.449Z,67.19
2023-03-17T04:23:32.012Z,67.63
2023-03-17T04:26:02.753Z,67.22
2023-03-17T04:28:40.174Z,68.03
2023-03-17T04:31:10.109Z,67.89
2023-03-17T04:33:38.440Z,66.90
2023-03-17T04:36:08.740Z,65.75
2023-03-17T04:38:37.871Z,65.81
2023-03-17T04:41:08.623Z,65.89
2023-03-17T04:43:37.136Z,65.91
2023-03-17T04:46:16.813Z,64.49
2023-03-17T04:51:38.154Z,65.81
2023-03-17T04:54:10.600Z,62.75
2023-03-17T04:56:41.905Z,64.41
2023-03-17T04:59:11.829Z,63.32
2023-03-17T05:01:46.205Z,64.88
2023-03-17T05:04:22.087Z,65.14
2023-03-17T05:07:03.149Z,63.72
2023-03-17T05:09:34.860Z,60.59
2023-03-17T05:12:04.199Z,63.02
2023-03-17T05:14:33.645Z,62.68
2023-03-17T05:17:05.243Z,59.49
2023-03-17T05:19:33.710Z,61.05
2023-03-17T05:22:07.976Z,62.10
2023-03-17T05:24:48.080Z,61.47
2023-03-17T05:27:17.333Z,61.35
2023-03-17T05:29:46.972Z,62.26
2023-03-17T05:37:41.818Z,61.13
2023-03-17T05:40:16.276Z,62.07
2023-03-17T05:42:45.878Z,57.43
2023-03-17T05:45:15.484Z,59.29
2023-03-17T05:47:48.152Z,60.11
2023-03-17T05:53:10.103Z,57.73
2023-03-17T05:55:41.594Z,57.47
2023-03-17T05:58:21.408Z,59.85
2023-03-17T06:01:01.492Z,57.37
2023-03-17T06:03:31.041Z,57.34
2023-03-17T06:06:07.550Z,58.67
2023-03-17T06:11:22.496Z,59.13
2023-03-17T06:13:54.969Z,55.93
2023-03-17T06:16:25.213Z,58.14
2023-03-17T06:18:57.122Z,54.41
2023-03-17T06:21:27.249Z,57.02
2023-03-17T06:24:00.943Z,57.97
2023-03-17T06:26:40.796Z,55.51
2023-03-17T06:29:27.201Z,55.74
2023-03-17T06:32:17.090Z,58.33
2023-03-17T06:35:00.784Z,56.01
2023-03-17T06:37:42.435Z,55.44
2023-03-17T06:40:17.619Z,56.20
2023-03-17T06:42:46.159Z,53.68
2023-03-17T06:45:18.898Z,54.66
2023-03-17T06:47:48.275Z,54.82
2023-03-17T06:50:30.979Z,57.21
2023-03-17T06:55:46.631Z,56.94
2023-03-17T07:00:58.439Z,53.39
2023-03-17T07:06:16.191Z,55.54
2023-03-17T07:08:45.983Z,53.19
2023-03-17T07:11:21.330Z,52.51
2023-03-17T07:13:53.949Z,55.84
2023-03-17T07:16:32.330Z,53.38
2023-03-17T07:21:53.241Z,52.74
2023-03-17T07:24:21.909Z,55.13
2023-03-17T07:26:50.510Z,53.26
2023-03-17T07:29:19.688Z,53.89
2023-03-17T07:31:48.208Z,53.13
2023-03-17T07:34:18.394Z,54.97
2023-03-17T07:36:52.390Z,54.27
2023-03-17T07:39:23.058Z,53.59
2023-03-17T07:41:58.906Z,51.12
2023-03-17T07:44:28.499Z,52.37
2023-03-17T07:46:58.321Z,53.45
2023-03-17T07:49:40.684Z,52.14
2023-03-17T07:52:17.169Z,53.26
2023-03-17T07:54:46.954Z,54.33
2023-03-17T07:57:17.665Z,54.21
2023-03-17T07:59:49.194Z,49.78
2023-03-17T08:02:20.420Z,53.61
2023-03-17T08:04:51.819Z,52.95
2023-03-17T08:07:20.678Z,49.34
2023-03-17T08:09:49.108Z,48.72
2023-03-17T08:12:17.548Z,50.43
2023-03-17T08:17:32.893Z,51.65
2023-03-17T08:20:01.582Z,51.30
2023-03-17T08:22:31.182Z,49.74
2023-03-17T08:25:01.191Z,51.98
2023-03-17T08:27:38.650Z,50.08
2023-03-17T08:35:34.958Z,48.96
2023-03-17T08:38:06.423Z,50.44
2023-03-17T08:40:53.445Z,48.92
2023-03-17T08:43:34.472Z,50.77
2023-03-17T08:46:20.145Z,50.73
2023-03-17T08:48:50.931Z,52.69
2023-03-17T08:51:24.379Z,50.91
2023-03-17T08:53:59.866Z,49.90
2023-03-17T08:56:29.789Z,51.02
2023-03-17T08:59:01.636Z,49.83
2023-03-17T09:04:15.051Z,51.69
2023-03-17T09:07:02.892Z,51.29
2023-03-17T09:12:28.030Z,48.65
2023-03-17T09:15:09.615Z,50.08
2023-03-17T09:20:24.407Z,49.92
2023-03-17T09:22:56.603Z,50.33
2023-03-17T09:25:36.146Z,49.14
2023-03-17T09:28:05.676Z,50.62
2023-03-17T09:30:34.169Z,48.94
2023-03-17T09:33:02.729Z,49.09
2023-03-17T09:35:32.355Z,50.45
2023-03-17T09:38:00.744Z,50.55
2023-03-17T09:40:39.910Z,49.31
2023-03-17T09:43:34.115Z,49.61
2023-03-17T09:46:23.851Z,50.26
2023-03-17T09:49:12.803Z,48.97
2023-03-17T09:51:50.973Z,48.68
2023-03-17T09:57:25.846Z,49.21
2023-03-17T10:00:24.089Z,48.84
2023-03-17T10:02:59.979Z,49.18
2023-03-17T10:05:43.021Z,51.71
2023-03-17T10:08:32.587Z,51.04
2023-03-17T10:11:16.002Z,50.93
2023-03-17T10:14:12.797Z,52.43
2023-03-17T10:16:54.778Z,51.82
2023-03-17T10:19:39.683Z,52.61
2023-03-17T10:22:39.101Z,52.32
2023-03-17T10:25:35.496Z,52.45
2023-03-17T10:28:12.531Z,53.70
2023-03-17T10:30:42.483Z,53.71
2023-03-17T10:33:26.198Z,53.27
2023-03-17T10:36:05.857Z,53.57
2023-03-17T10:38:38.733Z,54.61
2023-03-17T10:41:17.101Z,54.96
2023-03-17T10:43:54.803Z,55.85
2023-03-17T10:46:26.807Z,56.83
2023-03-17T10:49:20.681Z,57.52
2023-03-17T10:51:56.676Z,57.90
2023-03-17T10:54:43.096Z,58.67
2023-03-17T10:57:16.417Z,59.01
2023-03-17T10:59:50.365Z,59.01
2023-03-17T11:02:41.932Z,58.84
2023-03-17T11:05:28.153Z,58.95
2023-03-17T11:08:09.671Z,59.13
2023-03-17T11:10:41.412Z,57.93
2023-03-17T11:13:12.270Z,57.80
2023-03-17T11:16:01.948Z,58.31
2023-03-17T11:21:50.675Z,57.65
2023-03-17T11:24:56.175Z,58.03
2023-03-17T11:27:46.130Z,59.13
2023-03-17T11:30:41.154Z,59.49
2023-03-17T11:33:25.179Z,59.10
2023-03-17T11:36:06.055Z,59.26
2023-03-17T11:41:36.268Z,59.84
2023-03-17T11:47:44.862Z,62.47
2023-03-17T11:50:23.271Z,63.66
2023-03-17T11:53:26.548Z,64.98
2023-03-17T11:56:44.460Z,64.93
2023-03-17T11:59:41.123Z,65.13
2023-03-17T12:02:39.564Z,64.69
2023-03-17T12:05:17.675Z,64.86
2023-03-17T12:08:11.962Z,65.35
2023-03-17T12:10:56.687Z,66.48
2023-03-17T12:14:01.054Z,66.06
2023-03-17T12:16:48.625Z,65.49
2023-03-17T12:22:28.680Z,66.10
2023-03-17T12:25:26.745Z,65.43
2023-03-17T12:28:21.078Z,65.85
2023-03-17T12:31:21.468Z,66.61
2023-03-17T12:34:16.488Z,67.09
2023-03-17T12:36:51.745Z,67.99
2023-03-17T12:39:31.407Z,68.65
2023-03-17T12:42:28.459Z,69.77
2023-03-17T12:45:29.325Z,69.34
2023-03-17T12:48:15.728Z,68.84
2023-03-17T12:51:08.073Z,68.38
2023-03-17T12:59:22.276Z,68.00
2023-03-17T13:02:34.523Z,69.17
2023-03-17T13:05:09.009Z,70.63
2023-03-17T13:10:54.821Z,70.73
2023-03-17T13:14:26.012Z,70.50
2023-03-17T13:17:12.295Z,71.32
2023-03-17T13:20:02.106Z,71.59
2023-03-17T13:22:49.119Z,71.63
2023-03-17T13:26:08.339Z,72.46
2023-03-17T13:37:14.189Z,73.33
2023-03-17T13:39:59.791Z,74.86
2023-03-17T13:42:51.820Z,75.67
2023-03-17T13:45:39.196Z,76.95
2023-03-17T13:48:30.401Z,77.18
2023-03-17T13:51:19.669Z,77.76
2023-03-17T13:54:18.741Z,78.65
2023-03-17T13:57:07.009Z,78.47
2023-03-17T13:59:57.894Z,78.56
2023-03-17T14:02:37.654Z,78.88
2023-03-17T14:05:25.637Z,78.93
2023-03-17T14:08:26.784Z,77.84
2023-03-17T14:11:03.652Z,76.95
2023-03-17T14:13:44.787Z,76.16
2023-03-17T14:16:31.112Z,76.26
2023-03-17T14:19:18.197Z,77.42
2023-03-17T14:21:51.370Z,79.51
2023-03-17T14:27:23.163Z,79.02
2023-03-17T14:29:56.761Z,79.07
2023-03-17T14:35:28.401Z,78.34
2023-03-17T14:50:00.694Z,79.00
2023-03-17T14:55:18.070Z,79.78
2023-03-17T14:58:03.508Z,80.57
2023-03-17T15:00:40.698Z,81.05
2023-03-17T15:03:39.063Z,81.18
2023-03-17T15:06:28.021Z,81.21
2023-03-17T15:09:06.748Z,80.88
2023-03-17T15:14:45.828Z,80.18
2023-03-17T15:20:43.253Z,80.79
2023-03-17T15:40:07.659Z,84.76
2023-03-17T15:42:42.639Z,85.61
2023-03-17T15:45:18.922Z,86.59
2023-03-17T15:47:48.356Z,86.88
2023-03-17T15:50:30.490Z,86.58
2023-03-17T15:52:59.903Z,86.45
2023-03-17T15:55:30.783Z,86.67
2023-03-17T15:57:59.874Z,87.40
2023-03-17T16:00:30.678Z,88.03
2023-03-17T16:03:05.518Z,86.53
2023-03-17T16:05:37.113Z,83.99
2023-03-17T16:08:05.589Z,86.43
2023-03-17T16:10:34.567Z,86.75
2023-03-17T16:13:03.006Z,86.91
2023-03-17T16:15:38.231Z,87.33
2023-03-17T16:18:13.718Z,87.14
2023-03-17T16:20:53.268Z,87.47
2023-03-17T16:26:16.792Z,87.33
2023-03-17T16:28:48.629Z,85.70
2023-03-17T16:31:38.584Z,86.96
2023-03-17T16:34:24.282Z,86.92
2023-03-17T16:36:52.785Z,87.66
2023-03-17T16:39:23.625Z,87.08
2023-03-17T16:41:54.359Z,87.83
2023-03-17T16:44:34.699Z,87.66
2023-03-17T16:47:06.584Z,87.75
2023-03-17T16:49:43.996Z,88.08
2023-03-17T16:52:13.881Z,89.52
2023-03-17T16:54:43.392Z,89.12
2023-03-17T16:59:56.495Z,88.98
2023-03-17T17:02:24.909Z,89.52
2023-03-17T17:04:53.346Z,89.32
2023-03-17T17:07:21.760Z,89.10
2023-03-17T17:09:50.116Z,89.63
2023-03-17T17:12:18.452Z,88.54
2023-03-17T17:14:47.177Z,88.91
2023-03-17T17:17:16.785Z,89.21
2023-03-17T17:19:45.193Z,88.96
2023-03-17T17:22:17.780Z,88.06
2023-03-17T17:24:55.557Z,88.35
2023-03-17T17:27:30.224Z,88.22
2023-03-17T17:30:02.443Z,87.98
2023-03-17T17:32:35.262Z,87.69
2023-03-17T17:38:10.911Z,88.21
2023-03-17T17:46:33.704Z,87.46
2023-03-17T17:49:02.143Z,86.83
2023-03-17T17:51:30.445Z,86.98
2023-03-17T17:53:58.768Z,86.55
2023-03-17T17:56:34.437Z,86.39
2023-03-17T17:59:02.936Z,86.76
2023-03-17T18:01:33.977Z,87.27
2023-03-17T18:04:13.839Z,87.13
2023-03-17T18:06:47.118Z,87.64
2023-03-17T18:09:22.396Z,87.90
2023-03-17T18:17:18.276Z,88.12
2023-03-17T18:19:47.305Z,87.39
2023-03-17T18:22:18.372Z,88.67
2023-03-17T18:24:57.766Z,89.11
2023-03-17T18:27:26.673Z,89.27
2023-03-17T18:38:11.984Z,91.28
2023-03-17T18:40:42.728Z,91.76
2023-03-17T18:43:21.198Z,92.08
2023-03-17T18:45:53.037Z,92.33
2023-03-17T18:48:26.893Z,92.45
2023-03-17T18:51:04.923Z,92.75
2023-03-17T18:53:47.788Z,93.35
2023-03-17T18:59:07.788Z,93.79
2023-03-17T19:04:22.937Z,94.03
2023-03-17T19:06:51.430Z,93.72
2023-03-17T19:09:20.092Z,94.76
2023-03-17T19:11:48.732Z,94.08
2023-03-17T19:14:17.275Z,94.36
2023-03-17T19:16:45.934Z,95.25
2023-03-17T19:19:14.490Z,95.04
2023-03-17T19:21:42.851Z,95.72
2023-03-17T19:24:12.316Z,95.22
2023-03-17T19:26:41.127Z,95.46
2023-03-17T19:29:10.881Z,95.13
2023-03-17T19:31:43.663Z,94.79
2023-03-17T19:34:13.903Z,94.52
2023-03-17T19:36:43.944Z,95.74
2023-03-17T19:39:12.488Z,95.92
2023-03-17T19:41:41.415Z,96.41
2023-03-17T19:44:09.886Z,96.21
2023-03-17T19:46:39.127Z,96.31
2023-03-17T19:49:07.562Z,96.19
2023-03-17T19:51:35.876Z,96.01
2023-03-17T19:54:06.266Z,95.74
2023-03-17T19:56:34.932Z,95.94
2023-03-17T19:59:03.282Z,96.25
2023-03-17T20:01:33.000Z,96.04
2023-03-17T20:04:01.507Z,95.94
2023-03-17T20:06:32.257Z,95.91
2023-03-17T20:09:00.593Z,96.25
2023-03-17T20:11:28.965Z,96.16
2023-03-17T20:13:57.279Z,96.37
2023-03-17T20:16:25.642Z,96.69
2023-03-17T20:18:54.034Z,96.60
2023-03-17T20:21:22.541Z,96.27
2023-03-17T20:23:50.978Z,95.77
2023-03-17T20:26:27.461Z,95.73
2023-03-17T20:28:59.557Z,96.28
2023-03-17T20:31:29.846Z,96.07
2023-03-17T20:34:02.106Z,96.10
2023-03-17T20:36:30.541Z,96.47
2023-03-17T20:38:59.747Z,96.36
2023-03-17T20:41:41.804Z,96.67
2023-03-17T20:44:11.355Z,97.14
2023-03-17T20:46:40.265Z,96.65
2023-03-17T20:49:08.867Z,97.19
2023-03-17T20:51:37.841Z,97.73
2023-03-17T20:54:07.212Z,97.87
2023-03-17T20:56:37.514Z,97.75
2023-03-17T20:59:10.387Z,97.75
2023-03-17T21:01:40.086Z,97.98
2023-03-17T21:04:10.047Z,98.09
2023-03-17T21:06:45.441Z,97.61
2023-03-17T21:09:27.575Z,97.77
2023-03-17T21:11:55.955Z,97.76
2023-03-17T21:14:24.400Z,97.32
2023-03-17T21:16:52.772Z,96.85
2023-03-17T21:19:21.875Z,96.93
2023-03-17T21:21:50.385Z,96.68
2023-03-17T21:24:39.310Z,95.70
2023-03-17T21:27:25.094Z,96.38
2023-03-17T21:29:56.080Z,96.84
2023-03-17T21:32:33.886Z,96.79
2023-03-17T21:35:05.503Z,95.04
2023-03-17T21:37:40.573Z,95.18
2023-03-17T21:40:10.746Z,96.46
2023-03-17T21:42:41.736Z,96.18
2023-03-17T21:45:10.440Z,96.62
2023-03-17T21:50:35.664Z,97.24
2023-03-17T21:53:06.951Z,97.44
2023-03-17T21:55:38.340Z,97.20
2023-03-17T21:58:07.616Z,97.84
2023-03-17T22:00:44.775Z,97.50
2023-03-17T22:03:16.012Z,97.26
2023-03-17T22:05:45.110Z,97.17
2023-03-17T22:08:15.611Z,96.76
2023-03-17T22:10:52.999Z,95.79
2023-03-17T22:13:21.561Z,94.49
2023-03-17T22:15:49.964Z,93.47
2023-03-17T22:18:21.769Z,93.56
2023-03-17T22:20:55.182Z,93.31
2023-03-17T22:23:25.741Z,92.92
2023-03-17T22:26:05.211Z,92.52
2023-03-17T22:28:35.191Z,92.24
2023-03-17T22:31:06.857Z,92.21
2023-03-17T22:33:43.688Z,92.70
2023-03-17T22:44:30.108Z,92.60
2023-03-17T22:47:01.421Z,93.03
2023-03-17T22:49:41.704Z,92.81
2023-03-17T22:52:11.909Z,92.20
2023-03-17T22:57:32.322Z,89.45
2023-03-17T23:00:05.003Z,89.39
2023-03-17T23:02:45.508Z,91.27
2023-03-17T23:08:04.438Z,93.48
2023-03-17T23:21:35.792Z,92.50
2023-03-17T23:24:08.162Z,94.36
2023-03-17T23:32:30.674Z,94.93
2023-03-17T23:37:42.919Z,96.15
2023-03-17T23:40:27.456Z,94.43
2023-03-17T23:42:59.099Z,96.49
2023-03-17T23:45:32.375Z,93.80
2023-03-17T23:50:43.415Z,94.67
2023-03-17T23:53:16.087Z,95.59
